createdAt,value
2018-09-25T00:00:13.872Z,46188.33
2018-09-25T00:02:23.931Z,46179.62
2018-09-25T00:04:34.063Z,46184.46
2018-09-25T00:06:44.163Z,46167.04
2018-09-25T00:08:54.174Z,46154.46
2018-09-25T00:11:04.283Z,46168.97
2018-09-25T00:13:14.178Z,46159.30
2018-09-25T00:15:24.150Z,46179.62
2018-09-25T00:17:34.138Z,46173.81
2018-09-25T00:19:44.225Z,46161.23
2018-09-25T00:21:54.270Z,46162.20
2018-09-25T00:24:04.329Z,46167.04
2018-09-25T00:26:14.356Z,46179.62
2018-09-25T00:28:24.179Z,46163.17
2018-09-25T00:30:34.106Z,46155.43
2018-09-25T00:32:44.138Z,46142.84
2018-09-25T00:34:54.154Z,46184.46
2018-09-25T00:37:04.137Z,46157.36
2018-09-25T00:39:15.114Z,46161.23
2018-09-25T00:41:25.120Z,46188.33
2018-09-25T00:43:35.149Z,46167.04
2018-09-25T00:45:45.285Z,46144.78
2018-09-25T00:47:55.269Z,46178.65
2018-09-25T00:50:05.193Z,46166.07
2018-09-25T00:52:15.140Z,46174.78
2018-09-25T00:54:25.106Z,46174.78
2018-09-25T00:56:35.057Z,46163.17
2018-09-25T00:58:44.810Z,46162.20
2018-09-25T01:00:54.958Z,46141.88
2018-09-25T01:03:04.920Z,46144.78
2018-09-25T01:05:14.976Z,46154.46
2018-09-25T01:07:24.828Z,46141.88
2018-09-25T01:09:35.015Z,46140.91
2018-09-25T01:11:45.008Z,46149.62
2018-09-25T01:13:54.899Z,46150.59
2018-09-25T01:16:05.112Z,46149.62
2018-09-25T01:18:15.308Z,46137.04
2018-09-25T01:20:25.648Z,46142.84
2018-09-25T01:22:35.577Z,46149.62
2018-09-25T01:24:45.549Z,46136.07
2018-09-25T01:26:55.471Z,46146.71
2018-09-25T01:29:05.502Z,46166.07
2018-09-25T01:31:15.464Z,46163.17
2018-09-25T01:33:25.254Z,46159.30
2018-09-25T01:35:35.621Z,46159.30
2018-09-25T01:37:45.545Z,46136.07
2018-09-25T01:39:55.354Z,46171.87
2018-09-25T01:42:05.218Z,46144.78
2018-09-25T01:46:30.680Z,46173.81
2018-09-25T01:48:40.889Z,46142.84
2018-09-25T01:50:50.667Z,46170.91
2018-09-25T01:53:00.752Z,46139.94
2018-09-25T01:55:10.618Z,46145.75
2018-09-25T01:57:20.602Z,46161.23
2018-09-25T01:59:30.595Z,46162.20
2018-09-25T02:01:40.808Z,46142.84
2018-09-25T02:03:50.824Z,46154.46
2018-09-25T02:06:00.928Z,46123.49
2018-09-25T02:08:11.139Z,46148.65
2018-09-25T02:10:20.873Z,46156.39
2018-09-25T02:12:30.958Z,46165.10
2018-09-25T02:14:40.767Z,46160.27
2018-09-25T02:16:50.652Z,46153.49
2018-09-25T02:19:00.586Z,46137.04
2018-09-25T02:21:10.544Z,46143.81
2018-09-25T02:23:20.359Z,46184.46
2018-09-25T02:25:30.334Z,46155.43
2018-09-25T02:27:40.162Z,46173.81
2018-09-25T02:29:51.040Z,46163.17
2018-09-25T02:32:00.780Z,46142.84
2018-09-25T02:34:10.859Z,46170.91
2018-09-25T02:36:20.589Z,46056.72
2018-09-25T02:38:30.493Z,46162.20
2018-09-25T02:40:40.533Z,46139.94
2018-09-25T02:42:50.639Z,46159.30
2018-09-25T02:45:00.632Z,46152.52
2018-09-25T02:47:10.908Z,46158.33
2018-09-25T02:49:20.819Z,46144.78
2018-09-25T02:51:30.846Z,46158.33
2018-09-25T02:53:40.922Z,46161.23
2018-09-25T02:55:51.063Z,46150.59
2018-09-25T02:58:01.034Z,46168.01
2018-09-25T03:00:14.567Z,46144.78
2018-09-25T03:02:26.084Z,46152.52
2018-09-25T03:04:36.903Z,46139.94
2018-09-25T03:06:50.863Z,46151.55
2018-09-25T03:09:01.052Z,46143.81
2018-09-25T03:11:12.006Z,46135.10
2018-09-25T03:13:23.089Z,46142.84
2018-09-25T03:15:37.036Z,46141.88
2018-09-25T03:17:48.340Z,46127.36
2018-09-25T03:19:58.657Z,46142.84
2018-09-25T03:22:08.880Z,46137.04
2018-09-25T03:24:18.623Z,46128.33
2018-09-25T03:26:28.403Z,46123.49
2018-09-25T03:28:38.440Z,46139.94
2018-09-25T03:30:48.352Z,46141.88
2018-09-25T03:32:58.229Z,46120.59
2018-09-25T03:35:08.383Z,46151.55
2018-09-25T03:37:18.368Z,46134.14
2018-09-25T03:39:28.400Z,46120.59
2018-09-25T03:41:38.341Z,46123.49
2018-09-25T03:43:48.202Z,46121.55
2018-09-25T03:45:58.228Z,46138.01
2018-09-25T03:48:08.201Z,46116.72
2018-09-25T03:50:18.125Z,46108.01
2018-09-25T03:52:27.974Z,46155.43
2018-09-25T03:54:37.968Z,46144.78
2018-09-25T03:56:47.840Z,46117.68
2018-09-25T03:58:57.728Z,46126.39
2018-09-25T04:01:08.508Z,46102.20
2018-09-25T04:03:18.207Z,46108.98
2018-09-25T04:05:28.066Z,46116.72
2018-09-25T04:07:38.047Z,46102.20
2018-09-25T04:09:47.964Z,46124.46
2018-09-25T04:11:57.822Z,46122.52
2018-09-25T04:14:07.969Z,46108.98
2018-09-25T04:16:17.782Z,46132.20
2018-09-25T04:18:27.701Z,46090.59
2018-09-25T04:20:37.685Z,46089.62
2018-09-25T04:22:47.721Z,46117.68
2018-09-25T04:24:57.501Z,46109.94
2018-09-25T04:27:07.309Z,46143.81
2018-09-25T04:29:17.003Z,46135.10
2018-09-25T04:31:26.946Z,46093.49
2018-09-25T04:33:36.808Z,46119.62
2018-09-25T04:35:46.582Z,46100.27
2018-09-25T04:37:56.424Z,46128.33
2018-09-25T04:40:08.273Z,46125.43
2018-09-25T04:42:18.443Z,46101.23
2018-09-25T04:44:29.652Z,46092.52
2018-09-25T04:46:39.896Z,46130.27
2018-09-25T04:48:50.074Z,46111.88
2018-09-25T04:51:00.643Z,46113.81
2018-09-25T04:53:10.583Z,46093.49
2018-09-25T04:55:20.524Z,46133.17
2018-09-25T04:57:30.312Z,46093.49
2018-09-25T04:59:40.041Z,46102.20
2018-09-25T05:01:50.084Z,46107.04
2018-09-25T05:03:59.939Z,46114.78
2018-09-25T05:06:09.750Z,46112.85
2018-09-25T05:08:19.989Z,46106.07
2018-09-25T05:10:30.147Z,46113.81
2018-09-25T05:12:40.036Z,46103.17
2018-09-25T05:14:49.957Z,46098.33
2018-09-25T05:17:00.615Z,46103.17
2018-09-25T05:19:10.785Z,46093.49
2018-09-25T05:21:20.615Z,46117.68
2018-09-25T05:23:30.647Z,46114.78
2018-09-25T05:25:40.583Z,46110.91
2018-09-25T05:27:50.542Z,46093.49
2018-09-25T05:30:00.319Z,46110.91
2018-09-25T05:32:10.133Z,46107.04
2018-09-25T05:34:19.936Z,46094.46
2018-09-25T05:36:29.627Z,46112.85
2018-09-25T05:38:39.457Z,46108.01
2018-09-25T05:40:49.507Z,46117.68
2018-09-25T05:42:59.316Z,46102.20
2018-09-25T05:45:09.414Z,46116.72
2018-09-25T05:47:19.342Z,46085.75
2018-09-25T05:49:29.184Z,46097.36
2018-09-25T05:51:39.120Z,46108.01
2018-09-25T05:53:49.121Z,46121.55
2018-09-25T05:55:58.933Z,46114.78
2018-09-25T05:58:09.808Z,46088.65
2018-09-25T06:00:19.638Z,46130.27
2018-09-25T06:02:29.306Z,46107.04
2018-09-25T06:04:39.207Z,46109.94
2018-09-25T06:06:49.371Z,46120.59
2018-09-25T06:08:59.157Z,46109.94
2018-09-25T06:11:08.933Z,46116.72
2018-09-25T06:13:18.816Z,46079.95
2018-09-25T06:15:28.749Z,46098.33
2018-09-25T06:17:38.801Z,46116.72
2018-09-25T06:19:48.808Z,46103.17
2018-09-25T06:21:58.839Z,46134.14
2018-09-25T06:24:08.844Z,46105.11
2018-09-25T06:26:18.665Z,46118.65
2018-09-25T06:28:28.612Z,46090.59
2018-09-25T06:30:38.403Z,46113.81
2018-09-25T06:32:48.301Z,46108.98
2018-09-25T06:34:58.270Z,46135.10
2018-09-25T06:37:08.101Z,46134.14
2018-09-25T06:39:17.810Z,46108.01
2018-09-25T06:41:27.651Z,46117.68
2018-09-25T06:43:37.509Z,46140.91
2018-09-25T06:45:47.328Z,46151.55
2018-09-25T06:47:57.063Z,46122.52
2018-09-25T06:50:06.775Z,46112.85
2018-09-25T06:52:16.594Z,46152.52
2018-09-25T06:54:26.459Z,46112.85
2018-09-25T06:56:36.174Z,46133.17
2018-09-25T06:58:45.866Z,46116.72
2018-09-25T07:00:55.694Z,46130.27
2018-09-25T07:03:05.398Z,46132.20
2018-09-25T07:05:15.391Z,46134.14
2018-09-25T07:07:25.378Z,46109.94
2018-09-25T07:09:35.095Z,46115.75
2018-09-25T07:11:45.030Z,46134.14
2018-09-25T07:13:55.535Z,46137.04
2018-09-25T07:16:05.348Z,46149.62
2018-09-25T07:18:15.186Z,46146.71
2018-09-25T07:20:25.049Z,46137.04
2018-09-25T07:22:35.380Z,46145.75
2018-09-25T07:24:45.171Z,46139.94
2018-09-25T07:26:54.878Z,46140.91
2018-09-25T07:29:04.590Z,46133.17
2018-09-25T07:31:14.686Z,46132.20
2018-09-25T07:33:24.468Z,46143.81
2018-09-25T07:35:34.414Z,46138.98
2018-09-25T07:37:44.184Z,46157.36
2018-09-25T07:39:54.143Z,46138.01
2018-09-25T07:42:04.148Z,46148.65
2018-09-25T07:44:14.099Z,46126.39
2018-09-25T07:46:23.870Z,46155.43
2018-09-25T07:48:34.084Z,46137.04
2018-09-25T07:50:43.921Z,46156.39
2018-09-25T07:52:54.005Z,46140.91
2018-09-25T07:55:04.341Z,46151.55
2018-09-25T07:57:14.891Z,46159.30
2018-09-25T07:59:25.093Z,46161.23
2018-09-25T08:01:35.073Z,46189.30
2018-09-25T08:03:45.059Z,46147.68
2018-09-25T08:05:55.051Z,46175.75
2018-09-25T08:08:05.557Z,46137.04
2018-09-25T08:10:16.246Z,46163.17
2018-09-25T08:12:26.381Z,46164.14
2018-09-25T08:14:36.237Z,46169.94
2018-09-25T08:16:46.221Z,46159.30
2018-09-25T08:18:55.937Z,46180.59
2018-09-25T08:21:05.683Z,46174.78
2018-09-25T08:23:15.556Z,46168.01
2018-09-25T08:25:25.679Z,46176.71
2018-09-25T08:27:35.474Z,46170.91
2018-09-25T08:29:45.520Z,46191.23
2018-09-25T08:31:55.553Z,46168.01
2018-09-25T08:34:05.463Z,46171.87
2018-09-25T08:36:15.180Z,46174.78
2018-09-25T08:38:25.118Z,46169.94
2018-09-25T08:40:35.017Z,46178.65
2018-09-25T08:42:44.767Z,46157.36
2018-09-25T08:44:54.550Z,46186.39
2018-09-25T08:47:04.414Z,46191.23
2018-09-25T08:49:14.303Z,46202.84
2018-09-25T08:51:24.193Z,46187.36
2018-09-25T08:53:34.401Z,46185.43
2018-09-25T08:55:44.196Z,46179.62
2018-09-25T08:57:54.336Z,46202.84
2018-09-25T09:00:04.199Z,46198.97
2018-09-25T09:02:14.565Z,46196.07
2018-09-25T09:04:24.893Z,46202.84
2018-09-25T09:06:34.712Z,46219.30
2018-09-25T09:08:46.895Z,46202.84
2018-09-25T09:10:58.600Z,46198.97
2018-09-25T09:13:08.538Z,46210.59
2018-09-25T09:15:18.291Z,46218.33
2018-09-25T09:17:28.147Z,46193.17
2018-09-25T09:19:38.338Z,46206.71
2018-09-25T09:21:48.155Z,46228.97
2018-09-25T09:23:58.200Z,46218.33
2018-09-25T09:26:07.994Z,46212.52
2018-09-25T09:28:17.714Z,46227.04
2018-09-25T09:30:27.479Z,46212.52
2018-09-25T09:32:37.955Z,46223.17
2018-09-25T09:34:47.736Z,46236.71
2018-09-25T09:36:57.499Z,46227.04
2018-09-25T09:39:07.274Z,46228.01
2018-09-25T09:41:17.044Z,46193.17
2018-09-25T09:43:26.861Z,46228.01
2018-09-25T09:45:36.582Z,46238.65
2018-09-25T09:47:46.339Z,46234.78
2018-09-25T09:49:56.248Z,46224.13
2018-09-25T09:52:06.040Z,46229.94
2018-09-25T09:54:16.004Z,46251.23
2018-09-25T09:56:26.019Z,46222.20
2018-09-25T09:58:35.736Z,46232.84
2018-09-25T10:00:45.457Z,46235.75
2018-09-25T10:02:55.242Z,46252.20
2018-09-25T10:05:04.954Z,46246.39
2018-09-25T10:07:14.841Z,46260.91
2018-09-25T10:09:24.635Z,46237.68
2018-09-25T10:11:34.494Z,46245.43
2018-09-25T10:13:44.276Z,46258.01
2018-09-25T10:15:54.348Z,46259.94
2018-09-25T10:18:04.191Z,46273.49
2018-09-25T10:20:13.977Z,46270.59
2018-09-25T10:22:23.737Z,46258.01
2018-09-25T10:24:33.654Z,46268.65
2018-09-25T10:26:43.442Z,46267.68
2018-09-25T10:28:53.178Z,46284.14
2018-09-25T10:31:02.899Z,46262.84
2018-09-25T10:33:13.154Z,46271.55
2018-09-25T10:35:22.976Z,46300.59
2018-09-25T10:37:33.139Z,46290.91
2018-09-25T10:39:43.168Z,46258.01
2018-09-25T10:41:53.238Z,46282.20
2018-09-25T10:44:03.343Z,46297.68
2018-09-25T10:46:13.349Z,46271.55
2018-09-25T10:48:23.165Z,46286.07
2018-09-25T10:50:33.130Z,46290.91
2018-09-25T10:52:42.852Z,46295.75
2018-09-25T10:54:52.718Z,46276.39
2018-09-25T10:57:02.824Z,46276.39
2018-09-25T10:59:12.751Z,46285.10
2018-09-25T11:01:22.814Z,46306.39
2018-09-25T11:03:32.721Z,46301.55
2018-09-25T11:05:42.687Z,46292.84
2018-09-25T11:07:52.545Z,46289.94
2018-09-25T11:10:02.520Z,46289.94
2018-09-25T11:12:12.402Z,46287.04
2018-09-25T11:14:22.427Z,46303.49
2018-09-25T11:16:32.360Z,46306.39
2018-09-25T11:18:42.256Z,46291.88
2018-09-25T11:20:52.298Z,46289.94
2018-09-25T11:23:02.308Z,46273.49
2018-09-25T11:25:12.171Z,46290.91
2018-09-25T11:27:22.126Z,46260.91
2018-09-25T11:29:32.073Z,46275.43
2018-09-25T11:31:41.812Z,46292.84
2018-09-25T11:33:52.500Z,46291.88
2018-09-25T11:36:02.436Z,46270.59
2018-09-25T11:38:12.335Z,46273.49
2018-09-25T11:40:22.045Z,46290.91
2018-09-25T11:42:31.878Z,46258.01
2018-09-25T11:44:41.711Z,46289.94
2018-09-25T11:46:51.645Z,46271.55
2018-09-25T11:49:01.545Z,46262.84
2018-09-25T11:51:11.970Z,46276.39
2018-09-25T11:53:21.884Z,46269.62
2018-09-25T11:55:31.792Z,46286.07
2018-09-25T11:57:41.972Z,46289.94
2018-09-25T11:59:51.917Z,46275.43
2018-09-25T12:02:01.913Z,46280.27
2018-09-25T12:04:11.719Z,46282.20
2018-09-25T12:06:21.629Z,46275.43
2018-09-25T12:08:31.406Z,46288.01
2018-09-25T12:10:41.342Z,46279.30
2018-09-25T12:12:51.133Z,46288.01
2018-09-25T12:15:00.906Z,46288.01
2018-09-25T12:17:10.705Z,46252.20
2018-09-25T12:19:20.586Z,46284.14
2018-09-25T12:21:30.567Z,46290.91
2018-09-25T12:23:40.370Z,46285.10
2018-09-25T12:25:50.359Z,46280.27
2018-09-25T12:28:00.462Z,46281.23
2018-09-25T12:30:10.758Z,46293.81
2018-09-25T12:32:20.817Z,46285.10
2018-09-25T12:34:30.822Z,46288.01
2018-09-25T12:36:40.706Z,46279.30
2018-09-25T12:38:50.646Z,46274.46
2018-09-25T12:41:00.617Z,46304.46
2018-09-25T12:43:10.332Z,46291.88
2018-09-25T12:45:20.102Z,46285.10
2018-09-25T12:47:29.761Z,46290.91
2018-09-25T12:49:39.738Z,46313.17
2018-09-25T12:51:49.750Z,46316.07
2018-09-25T12:53:59.745Z,46317.04
2018-09-25T12:56:09.473Z,46299.62
2018-09-25T12:58:19.393Z,46335.43
2018-09-25T13:00:29.204Z,46302.52
2018-09-25T13:02:39.067Z,46309.30
2018-09-25T13:04:48.969Z,46306.39
2018-09-25T13:06:58.770Z,46313.17
2018-09-25T13:09:08.546Z,46301.55
2018-09-25T13:11:18.281Z,46301.55
2018-09-25T13:13:27.906Z,46331.55
2018-09-25T13:15:37.583Z,46308.33
2018-09-25T13:17:47.495Z,46305.43
2018-09-25T13:19:59.547Z,46346.07
2018-09-25T13:22:09.484Z,46308.33
2018-09-25T13:24:19.636Z,46314.14
2018-09-25T13:26:29.613Z,46320.91
2018-09-25T13:28:40.774Z,46325.75
2018-09-25T13:30:50.856Z,46320.91
2018-09-25T13:33:00.631Z,46311.23
2018-09-25T13:35:17.935Z,46321.88
2018-09-25T13:37:28.613Z,46331.55
2018-09-25T13:39:38.543Z,46318.01
2018-09-25T13:41:49.799Z,46310.27
2018-09-25T13:43:59.993Z,46327.68
2018-09-25T13:46:09.881Z,46311.23
2018-09-25T13:48:19.836Z,46313.17
2018-09-25T13:50:29.878Z,46303.49
2018-09-25T13:52:39.577Z,46328.65
2018-09-25T13:54:49.456Z,46317.04
2018-09-25T13:56:59.431Z,46313.17
2018-09-25T13:59:09.466Z,46294.78
2018-09-25T14:01:19.398Z,46299.62
2018-09-25T14:03:29.495Z,46317.04
2018-09-25T14:05:39.520Z,46307.36
2018-09-25T14:07:49.373Z,46305.43
2018-09-25T14:09:59.315Z,46316.07
2018-09-25T14:12:09.270Z,46318.97
2018-09-25T14:14:19.217Z,46333.49
2018-09-25T14:16:29.151Z,46313.17
2018-09-25T14:18:39.115Z,46325.75
2018-09-25T14:20:48.771Z,46300.59
2018-09-25T14:22:58.602Z,46298.65
2018-09-25T14:25:08.540Z,46298.65
2018-09-25T14:27:18.419Z,46316.07
2018-09-25T14:29:28.540Z,46311.23
2018-09-25T14:31:38.426Z,46316.07
2018-09-25T14:33:48.304Z,46317.04
2018-09-25T14:35:58.196Z,46293.81
2018-09-25T14:38:08.137Z,46310.27
2018-09-25T14:40:18.152Z,46294.78
2018-09-25T14:42:28.128Z,46314.14
2018-09-25T14:44:38.162Z,46318.01
2018-09-25T14:46:48.048Z,46289.94
2018-09-25T14:48:57.893Z,46299.62
2018-09-25T14:51:07.676Z,46299.62
2018-09-25T14:53:17.374Z,46292.84
2018-09-25T14:55:27.376Z,46301.55
2018-09-25T14:57:37.444Z,46305.43
2018-09-25T14:59:47.596Z,46291.88
2018-09-25T15:01:57.849Z,46268.65
2018-09-25T15:04:07.872Z,46307.36
2018-09-25T15:06:17.925Z,46314.14
2018-09-25T15:08:27.730Z,46294.78
2018-09-25T15:10:37.650Z,46299.62
2018-09-25T15:12:47.617Z,46297.68
2018-09-25T15:14:57.727Z,46296.72
2018-09-25T15:17:07.609Z,46304.46
2018-09-25T15:19:17.573Z,46273.49
2018-09-25T15:21:27.666Z,46298.65
2018-09-25T15:23:37.572Z,46307.36
2018-09-25T15:25:47.454Z,46298.65
2018-09-25T15:27:57.356Z,46301.55
2018-09-25T15:30:07.241Z,46307.36
2018-09-25T15:32:17.238Z,46291.88
2018-09-25T15:34:27.295Z,46306.39
2018-09-25T15:36:37.296Z,46306.39
2018-09-25T15:38:47.223Z,46318.01
2018-09-25T15:40:57.145Z,46310.27
2018-09-25T15:43:07.209Z,46323.81
2018-09-25T15:45:17.196Z,46299.62
2018-09-25T15:47:27.092Z,46304.46
2018-09-25T15:49:37.050Z,46305.43
2018-09-25T15:51:46.939Z,46280.27
2018-09-25T15:53:57.176Z,46305.43
2018-09-25T15:56:07.377Z,46319.94
2018-09-25T15:58:17.487Z,46305.43
2018-09-25T16:00:28.264Z,46315.11
2018-09-25T16:02:38.158Z,46284.14
2018-09-25T16:04:48.253Z,46275.43
2018-09-25T16:06:58.537Z,46305.43
2018-09-25T16:09:08.481Z,46312.20
2018-09-25T16:11:18.615Z,46306.39
2018-09-25T16:13:28.546Z,46294.78
2018-09-25T16:15:38.805Z,46301.55
2018-09-25T16:17:48.568Z,46305.43
2018-09-25T16:19:58.671Z,46298.65
2018-09-25T16:22:08.559Z,46316.07
2018-09-25T16:24:18.304Z,46310.27
2018-09-25T16:26:28.377Z,46299.62
2018-09-25T16:28:38.241Z,46302.52
2018-09-25T16:30:53.078Z,46299.62
2018-09-25T16:33:03.053Z,46311.23
2018-09-25T16:35:13.067Z,46294.78
2018-09-25T16:37:23.112Z,46293.81
2018-09-25T16:39:33.169Z,46313.17
2018-09-25T16:41:43.085Z,46317.04
2018-09-25T16:43:52.910Z,46304.46
2018-09-25T16:46:02.950Z,46295.75
2018-09-25T16:48:13.243Z,46310.27
2018-09-25T16:50:23.185Z,46274.46
2018-09-25T16:52:33.329Z,46303.49
2018-09-25T16:54:43.211Z,46303.49
2018-09-25T16:56:53.126Z,46293.81
2018-09-25T16:59:03.054Z,46299.62
2018-09-25T17:01:12.825Z,46287.04
2018-09-25T17:03:23.085Z,46292.84
2018-09-25T17:05:33.256Z,46287.04
2018-09-25T17:07:43.193Z,46277.36
2018-09-25T17:09:53.171Z,46294.78
2018-09-25T17:12:03.327Z,46292.84
2018-09-25T17:14:13.362Z,46289.94
2018-09-25T17:16:23.593Z,46278.33
2018-09-25T17:18:33.987Z,46275.43
2018-09-25T17:20:44.090Z,46274.46
2018-09-25T17:22:53.809Z,46287.04
2018-09-25T17:25:03.867Z,46245.43
2018-09-25T17:27:13.746Z,46277.36
2018-09-25T17:29:23.835Z,46266.71
2018-09-25T17:31:33.899Z,46293.81
2018-09-25T17:33:43.808Z,46284.14
2018-09-25T17:35:53.839Z,46269.62
2018-09-25T17:38:03.717Z,46266.71
2018-09-25T17:40:13.576Z,46257.04
2018-09-25T17:42:23.383Z,46259.94
2018-09-25T17:44:33.495Z,46275.43
2018-09-25T17:46:43.521Z,46258.97
2018-09-25T17:48:53.287Z,46265.75
2018-09-25T17:51:03.531Z,46262.84
2018-09-25T17:53:13.560Z,46268.65
2018-09-25T17:55:23.400Z,46274.46
2018-09-25T17:57:33.222Z,46251.23
2018-09-25T17:59:43.263Z,46252.20
2018-09-25T18:01:53.631Z,46271.55
2018-09-25T18:04:04.419Z,46266.71
2018-09-25T18:06:14.849Z,46254.14
2018-09-25T18:08:25.125Z,46257.04
2018-09-25T18:10:35.558Z,46256.07
2018-09-25T18:12:45.602Z,46228.97
2018-09-25T18:14:55.780Z,46252.20
2018-09-25T18:17:06.076Z,46259.94
2018-09-25T18:19:16.613Z,46260.91
2018-09-25T18:21:26.925Z,46230.91
2018-09-25T18:23:37.084Z,46250.26
2018-09-25T18:25:47.162Z,46236.71
2018-09-25T18:27:57.424Z,46233.81
2018-09-25T18:30:07.295Z,46231.87
2018-09-25T18:32:17.408Z,46234.78
2018-09-25T18:34:27.637Z,46239.62
2018-09-25T18:36:37.737Z,46245.43
2018-09-25T18:38:47.828Z,46237.68
2018-09-25T18:40:57.955Z,46228.97
2018-09-25T18:43:07.934Z,46229.94
2018-09-25T18:45:20.130Z,46228.01
2018-09-25T18:47:30.293Z,46221.23
2018-09-25T18:49:40.307Z,46224.13
2018-09-25T18:51:50.457Z,46236.71
2018-09-25T18:54:00.957Z,46221.23
2018-09-25T18:56:10.829Z,46236.71
2018-09-25T18:58:21.141Z,46227.04
2018-09-25T19:00:31.368Z,46226.07
2018-09-25T19:02:41.796Z,46228.01
2018-09-25T19:04:51.983Z,46230.91
2018-09-25T19:07:01.836Z,46228.01
2018-09-25T19:09:14.573Z,46228.97
2018-09-25T19:11:24.425Z,46198.00
2018-09-25T19:13:34.703Z,46215.43
2018-09-25T19:15:45.399Z,46219.30
2018-09-25T19:17:55.503Z,46230.91
2018-09-25T19:20:05.449Z,46224.13
2018-09-25T19:22:22.782Z,46181.55
2018-09-25T19:24:32.747Z,46207.68
2018-09-25T19:26:42.850Z,46241.55
2018-09-25T19:28:53.635Z,46208.65
2018-09-25T19:31:06.019Z,46209.62
2018-09-25T19:33:19.136Z,46198.97
2018-09-25T19:35:32.278Z,46204.78
2018-09-25T19:37:45.454Z,46225.10
2018-09-25T19:39:57.793Z,46217.36
2018-09-25T19:42:08.696Z,46217.36
2018-09-25T19:44:22.001Z,46188.33
2018-09-25T19:46:33.518Z,46219.30
2018-09-25T19:48:44.581Z,46198.00
2018-09-25T19:50:58.156Z,46195.10
2018-09-25T19:53:09.610Z,46199.94
2018-09-25T19:55:22.006Z,46205.75
2018-09-25T19:57:32.267Z,46210.59
2018-09-25T19:59:42.882Z,46179.62
2018-09-25T20:01:53.942Z,46190.27
2018-09-25T20:04:04.886Z,46196.07
2018-09-25T20:06:15.105Z,46181.55
2018-09-25T20:08:26.480Z,46203.81
2018-09-25T20:10:36.916Z,46190.27
2018-09-25T20:12:47.087Z,46200.91
2018-09-25T20:14:57.502Z,46196.07
2018-09-25T20:17:10.239Z,46198.00
2018-09-25T20:19:20.929Z,46187.36
2018-09-25T20:21:31.058Z,46195.10
2018-09-25T20:23:41.322Z,46189.30
2018-09-25T20:25:52.075Z,46184.46
2018-09-25T20:28:02.897Z,46190.27
2018-09-25T20:30:13.827Z,46196.07
2018-09-25T20:32:24.113Z,46164.14
2018-09-25T20:34:34.575Z,46198.97
2018-09-25T20:36:46.900Z,46180.59
2018-09-25T20:38:56.817Z,46169.94
2018-09-25T20:41:06.958Z,46176.71
2018-09-25T20:43:16.709Z,46208.65
2018-09-25T20:45:26.788Z,46171.87
2018-09-25T20:47:36.836Z,46193.17
2018-09-25T20:49:46.694Z,46182.52
2018-09-25T20:51:56.715Z,46190.27
2018-09-25T20:54:06.745Z,46184.46
2018-09-25T20:56:16.722Z,46185.43
2018-09-25T20:58:26.989Z,46190.27
2018-09-25T21:00:37.177Z,46196.07
2018-09-25T21:02:47.442Z,46169.94
2018-09-25T21:04:57.549Z,46186.39
2018-09-25T21:07:07.697Z,46171.87
2018-09-25T21:09:17.887Z,46183.49
2018-09-25T21:11:27.950Z,46176.71
2018-09-25T21:13:37.816Z,46180.59
2018-09-25T21:15:47.980Z,46186.39
2018-09-25T21:17:58.281Z,46160.27
2018-09-25T21:20:08.580Z,46197.04
2018-09-25T21:22:19.042Z,46180.59
2018-09-25T21:24:29.012Z,46167.04
2018-09-25T21:26:39.208Z,46179.62
2018-09-25T21:28:49.390Z,46170.91
2018-09-25T21:30:59.842Z,46168.97
2018-09-25T21:33:10.268Z,46183.49
2018-09-25T21:35:20.603Z,46173.81
2018-09-25T21:37:30.743Z,46189.30
2018-09-25T21:39:40.718Z,46174.78
2018-09-25T21:41:50.611Z,46153.49
2018-09-25T21:44:00.564Z,46162.20
2018-09-25T21:46:10.547Z,46183.49
2018-09-25T21:48:20.805Z,46147.68
2018-09-25T21:50:30.619Z,46159.30
2018-09-25T21:52:40.672Z,46182.52
2018-09-25T21:54:50.620Z,46175.75
2018-09-25T21:57:00.626Z,46162.20
2018-09-25T21:59:10.573Z,46171.87
2018-09-25T22:01:20.463Z,46160.27
2018-09-25T22:03:30.502Z,46170.91
2018-09-25T22:05:40.523Z,46174.78
2018-09-25T22:07:50.353Z,46170.91
2018-09-25T22:10:00.420Z,46180.59
2018-09-25T22:12:10.324Z,46163.17
2018-09-25T22:14:20.511Z,46165.10
2018-09-25T22:16:30.375Z,46168.01
2018-09-25T22:18:40.271Z,46168.01
2018-09-25T22:20:49.997Z,46176.71
2018-09-25T22:22:59.702Z,46154.46
2018-09-25T22:25:09.665Z,46164.14
2018-09-25T22:27:19.955Z,46141.88
2018-09-25T22:29:29.809Z,46166.07
2018-09-25T22:31:39.880Z,46158.33
2018-09-25T22:33:49.650Z,46160.27
2018-09-25T22:35:59.683Z,46154.46
2018-09-25T22:38:09.824Z,46149.62
2018-09-25T22:40:19.637Z,46148.65
2018-09-25T22:42:29.877Z,46166.07
2018-09-25T22:44:39.830Z,46168.01
2018-09-25T22:46:49.806Z,46155.43
2018-09-25T22:48:59.754Z,46156.39
2018-09-25T22:51:09.556Z,46180.59
2018-09-25T22:53:19.310Z,46168.97
2018-09-25T22:55:29.202Z,46160.27
2018-09-25T22:57:39.059Z,46151.55
2018-09-25T22:59:48.846Z,46168.01
2018-09-25T23:01:58.632Z,46171.87
2018-09-25T23:04:08.687Z,46171.87
2018-09-25T23:06:18.597Z,46164.14
2018-09-25T23:08:28.327Z,46133.17
2018-09-25T23:10:38.086Z,46143.81
2018-09-25T23:12:48.088Z,46149.62
2018-09-25T23:14:57.774Z,46148.65
2018-09-25T23:17:07.842Z,46153.49
2018-09-25T23:19:17.620Z,46156.39
2018-09-25T23:21:27.536Z,46164.14
2018-09-25T23:23:37.341Z,46144.78
2018-09-25T23:25:47.255Z,46148.65
2018-09-25T23:27:57.024Z,46169.94
2018-09-25T23:30:06.978Z,46162.20
2018-09-25T23:32:16.939Z,46143.81
2018-09-25T23:34:26.773Z,46160.27
2018-09-25T23:36:36.764Z,46148.65
2018-09-25T23:38:46.733Z,46168.97
2018-09-25T23:40:58.574Z,46163.17
2018-09-25T23:45:10.827Z,46170.91
2018-09-25T23:47:27.855Z,46147.68
2018-09-25T23:49:36.707Z,46149.62
2018-09-25T23:53:49.603Z,46148.65
2018-09-25T23:56:00.562Z,46140.91
2018-09-25T23:58:09.234Z,46158.33
